< < Back
Terminal Aerodrome Forecast


Current Version              Previous Versions:   1  2  3  4  5  6  7  8  9  

Terminal Aerodrome Forecast

294
FTUS42 KTAE 241300 AAA
TAFTLH
TAF AMD
KTLH 241301Z 2413/2512 33004KT P6SM FEW040 SCT070
     FM241800 18007KT P6SM SCT040
     FM250800 00000KT 1SM BR BKN005=

Latest METAR

900
SAUS80 KWBC 250600 RRC
MTRTLH
METAR KTLH 250553Z AUTO 00000KT 7SM OVC006 20/18 A2995 RMK AO2 SLP140
T02000178 10261 20183 58004 $


USA.gov is the U.S. government's official web portal to all federal, state and local government web resources and services.